createdAt,value
2024-02-28T00:00:01.872Z,9.95
2024-02-28T00:01:03.783Z,10.07
2024-02-28T00:02:05.594Z,9.02
2024-02-28T00:03:07.169Z,6.80
2024-02-28T00:04:08.787Z,8.65
2024-02-28T00:05:10.438Z,9.80
2024-02-28T00:06:12.150Z,8.55
2024-02-28T00:07:13.785Z,10.25
2024-02-28T00:08:15.461Z,7.40
2024-02-28T00:09:17.272Z,8.98
2024-02-28T00:10:18.901Z,8.35
2024-02-28T00:11:20.470Z,7.57
2024-02-28T00:12:22.111Z,8.13
2024-02-28T00:13:24.314Z,10.07
2024-02-28T00:14:25.933Z,10.82
2024-02-28T00:15:27.546Z,10.95
2024-02-28T00:16:29.485Z,8.65
2024-02-28T00:17:31.144Z,13.32
2024-02-28T00:18:32.866Z,8.05
2024-02-28T00:19:34.521Z,7.18
2024-02-28T00:20:36.114Z,10.75
2024-02-28T00:21:37.730Z,8.25
2024-02-28T00:22:39.456Z,11.25
2024-02-28T00:23:41.094Z,8.85
2024-02-28T00:24:42.761Z,9.73
2024-02-28T00:25:44.907Z,7.60
2024-02-28T00:26:46.501Z,8.35
2024-02-28T00:27:48.167Z,10.25
2024-02-28T00:28:49.792Z,6.88
2024-02-28T00:29:51.406Z,11.05
2024-02-28T00:30:53.104Z,7.85
2024-02-28T00:31:55.153Z,6.22
2024-02-28T00:32:56.825Z,7.93
2024-02-28T00:33:58.569Z,7.28
2024-02-28T00:35:00.215Z,11.90
2024-02-28T00:36:01.783Z,6.15
2024-02-28T00:37:03.367Z,6.82
2024-02-28T00:38:04.990Z,9.95
2024-02-28T00:39:06.607Z,9.13
2024-02-28T00:40:09.812Z,9.45
2024-02-28T00:41:11.467Z,8.68
2024-02-28T00:42:13.082Z,9.25
2024-02-28T00:43:14.823Z,11.85
2024-02-28T00:44:16.410Z,7.93
2024-02-28T00:45:18.460Z,10.27
2024-02-28T00:46:20.084Z,7.30
2024-02-28T00:47:21.795Z,7.78
2024-02-28T00:48:23.660Z,10.10
2024-02-28T00:49:25.246Z,9.95
2024-02-28T00:50:26.819Z,9.05
2024-02-28T00:51:28.505Z,8.38
2024-02-28T00:52:31.787Z,7.32
2024-02-28T00:53:33.364Z,7.68
2024-02-28T00:54:34.951Z,7.82
2024-02-28T00:55:36.626Z,7.72
2024-02-28T00:56:38.261Z,9.40
2024-02-28T00:57:39.867Z,8.52
2024-02-28T00:58:41.732Z,6.88
2024-02-28T00:59:44.079Z,10.48
2024-02-28T01:00:45.787Z,8.07
2024-02-28T01:01:49.658Z,9.25
2024-02-28T01:02:51.245Z,8.48
2024-02-28T01:03:52.810Z,9.90
2024-02-28T01:04:54.435Z,8.30
2024-02-28T01:05:56.013Z,8.23
2024-02-28T01:06:57.593Z,9.07
2024-02-28T01:07:59.175Z,10.65
2024-02-28T01:09:00.805Z,9.30
2024-02-28T01:10:03.428Z,6.90
2024-02-28T01:11:05.324Z,10.15
2024-02-28T01:12:07.011Z,11.60
2024-02-28T01:13:08.615Z,8.65
2024-02-28T01:14:10.246Z,7.32
2024-02-28T01:15:11.921Z,8.27
2024-02-28T01:16:13.502Z,7.38
2024-02-28T01:17:15.104Z,10.25
2024-02-28T01:18:16.770Z,8.68
2024-02-28T01:19:18.435Z,7.80
2024-02-28T01:20:20.009Z,10.15
2024-02-28T01:21:21.588Z,8.27
2024-02-28T01:22:23.187Z,7.70
2024-02-28T01:23:24.762Z,6.88
2024-02-28T01:24:26.373Z,8.63
2024-02-28T01:25:27.983Z,6.88
2024-02-28T01:26:29.534Z,6.45
2024-02-28T01:27:31.157Z,9.50
2024-02-28T01:28:32.721Z,10.93
2024-02-28T01:29:34.287Z,8.07
2024-02-28T01:30:35.965Z,7.15
2024-02-28T01:31:37.568Z,10.75
2024-02-28T01:32:39.436Z,9.02
2024-02-28T01:33:41.610Z,10.00
2024-02-28T01:34:43.307Z,7.70
2024-02-28T01:35:44.887Z,8.25
2024-02-28T01:36:46.534Z,9.38
2024-02-28T01:37:48.287Z,10.00
2024-02-28T01:38:49.908Z,11.50
2024-02-28T01:39:52.572Z,9.88
2024-02-28T01:40:54.240Z,8.25
2024-02-28T01:41:56.014Z,9.25
2024-02-28T01:43:04.865Z,10.82
2024-02-28T01:44:06.486Z,9.20
2024-02-28T01:45:10.233Z,7.05
2024-02-28T01:46:24.203Z,8.75
2024-02-28T01:47:25.830Z,7.38
2024-02-28T01:48:27.438Z,7.75
2024-02-28T01:49:29.035Z,7.65
2024-02-28T01:50:30.818Z,8.73
2024-02-28T01:51:32.545Z,11.18
2024-02-28T01:52:34.195Z,8.07
2024-02-28T01:53:35.903Z,8.82
2024-02-28T01:54:37.530Z,9.25
2024-02-28T01:55:39.296Z,10.95
2024-02-28T01:56:41.322Z,8.65
2024-02-28T01:57:43.108Z,9.38
2024-02-28T01:58:46.515Z,8.93
2024-02-28T01:59:48.428Z,11.88
2024-02-28T02:00:50.659Z,11.82
2024-02-28T02:01:52.772Z,9.90
2024-02-28T02:02:54.919Z,8.82
2024-02-28T02:03:56.638Z,6.93
2024-02-28T02:04:59.061Z,8.90
2024-02-28T02:06:00.659Z,6.68
2024-02-28T02:07:02.417Z,9.68
2024-02-28T02:08:04.299Z,9.50
2024-02-28T02:09:06.133Z,11.90
2024-02-28T02:10:10.248Z,7.05
2024-02-28T02:11:11.997Z,7.88
2024-02-28T02:12:13.781Z,8.85
2024-02-28T02:13:15.446Z,9.45
2024-02-28T02:14:17.031Z,10.50
2024-02-28T02:15:18.651Z,8.88
2024-02-28T02:16:23.004Z,8.70
2024-02-28T02:17:24.558Z,10.02
2024-02-28T02:18:27.018Z,8.85
2024-02-28T02:20:33.638Z,8.45
2024-02-28T02:21:55.655Z,8.20
2024-02-28T02:22:57.342Z,7.78
2024-02-28T02:23:58.958Z,8.88
2024-02-28T02:25:00.574Z,5.72
2024-02-28T02:26:02.722Z,10.27
2024-02-28T02:27:07.203Z,11.43
2024-02-28T02:28:08.767Z,8.30
2024-02-28T02:29:10.580Z,10.63
2024-02-28T02:30:12.893Z,10.25
2024-02-28T02:31:14.869Z,13.85
2024-02-28T02:32:16.468Z,8.95
2024-02-28T02:33:18.124Z,9.02
2024-02-28T02:34:19.798Z,8.35
2024-02-28T02:35:21.371Z,7.22
2024-02-28T02:36:22.985Z,7.00
2024-02-28T02:37:24.705Z,9.95
2024-02-28T02:38:26.318Z,9.43
2024-02-28T02:39:28.171Z,10.02
2024-02-28T02:40:29.886Z,10.65
2024-02-28T02:41:31.539Z,10.73
2024-02-28T02:42:33.143Z,18.20
2024-02-28T02:43:34.810Z,7.60
2024-02-28T02:44:36.459Z,8.52
2024-02-28T02:45:38.099Z,13.07
2024-02-28T02:46:40.411Z,8.35
2024-02-28T02:47:42.071Z,8.43
2024-02-28T02:48:43.703Z,10.70
2024-02-28T02:49:45.327Z,9.70
2024-02-28T02:50:47.365Z,11.00
2024-02-28T02:51:49.122Z,8.90
2024-02-28T02:52:50.776Z,9.55
2024-02-28T02:53:52.538Z,10.40
2024-02-28T02:54:54.149Z,10.57
2024-02-28T02:55:55.812Z,10.32
2024-02-28T02:56:57.452Z,11.07
2024-02-28T02:57:59.112Z,11.90
2024-02-28T02:59:00.718Z,7.95
2024-02-28T03:00:02.461Z,10.52
2024-02-28T03:01:04.337Z,10.00
2024-02-28T03:02:05.972Z,9.65
2024-02-28T03:03:07.608Z,10.80
2024-02-28T03:04:09.218Z,14.55
2024-02-28T03:05:10.924Z,10.98
2024-02-28T03:06:12.550Z,15.50
2024-02-28T03:07:14.205Z,14.88
2024-02-28T03:08:16.322Z,17.92
2024-02-28T03:09:17.969Z,7.18
2024-02-28T03:10:19.593Z,9.50
2024-02-28T03:11:21.201Z,11.43
2024-02-28T03:12:22.915Z,10.07
2024-02-28T03:13:24.569Z,8.38
2024-02-28T03:14:28.200Z,9.25
2024-02-28T03:15:29.799Z,12.50
2024-02-28T03:16:31.425Z,8.63
2024-02-28T03:17:33.051Z,9.15
2024-02-28T03:18:34.713Z,12.55
2024-02-28T03:19:37.052Z,16.27
2024-02-28T03:20:39.746Z,15.15
2024-02-28T03:21:42.222Z,8.23
2024-02-28T03:23:45.648Z,11.00
2024-02-28T03:24:47.405Z,9.73
2024-02-28T03:25:49.166Z,14.15
2024-02-28T03:26:50.779Z,9.32
2024-02-28T03:27:53.445Z,8.68
2024-02-28T03:28:55.033Z,10.25
2024-02-28T03:29:56.572Z,13.68
2024-02-28T03:30:58.228Z,11.20
2024-02-28T03:32:00.193Z,8.95
2024-02-28T03:33:01.827Z,12.02
2024-02-28T03:34:03.537Z,12.45
2024-02-28T03:35:06.612Z,9.27
2024-02-28T03:36:08.208Z,19.05
2024-02-28T03:37:09.908Z,11.43
2024-02-28T03:38:11.487Z,15.68
2024-02-28T03:39:13.187Z,16.85
2024-02-28T03:40:15.886Z,14.52
2024-02-28T03:41:17.577Z,13.52
2024-02-28T03:42:19.160Z,13.38
2024-02-28T03:43:20.782Z,9.45
2024-02-28T03:44:22.656Z,11.60
2024-02-28T03:45:24.344Z,9.23
2024-02-28T03:46:25.917Z,12.85
2024-02-28T03:47:27.563Z,9.32
2024-02-28T03:48:29.212Z,10.63
2024-02-28T03:49:30.759Z,8.98
2024-02-28T03:50:32.310Z,12.48
2024-02-28T03:51:34.094Z,7.75
2024-02-28T03:52:35.701Z,10.48
2024-02-28T03:53:37.257Z,9.82
2024-02-28T03:54:38.943Z,9.73
2024-02-28T03:55:40.619Z,12.10
2024-02-28T03:56:42.193Z,8.70
2024-02-28T03:57:45.333Z,12.57
2024-02-28T03:58:46.896Z,8.27
2024-02-28T03:59:48.529Z,11.85
2024-02-28T04:00:50.199Z,10.07
2024-02-28T04:01:51.858Z,11.95
2024-02-28T04:02:53.468Z,11.82
2024-02-28T04:03:55.340Z,12.38
2024-02-28T04:04:56.976Z,11.18
2024-02-28T04:05:59.555Z,10.65
2024-02-28T04:08:02.690Z,8.05
2024-02-28T04:09:04.905Z,10.82
2024-02-28T04:10:07.036Z,9.32
2024-02-28T04:11:08.879Z,11.10
2024-02-28T04:12:10.516Z,8.25
2024-02-28T04:13:12.217Z,10.07
2024-02-28T04:14:13.860Z,7.90
2024-02-28T04:15:16.357Z,9.68
2024-02-28T04:16:18.302Z,9.45
2024-02-28T04:17:19.974Z,11.88
2024-02-28T04:18:21.581Z,8.95
2024-02-28T04:19:23.149Z,11.93
2024-02-28T04:20:24.783Z,10.85
2024-02-28T04:21:26.421Z,8.35
2024-02-28T04:22:27.986Z,16.90
2024-02-28T04:23:29.694Z,11.15
2024-02-28T04:24:31.337Z,11.10
2024-02-28T04:25:32.945Z,10.43
2024-02-28T04:26:34.903Z,12.18
2024-02-28T04:27:39.749Z,13.13
2024-02-28T04:28:43.194Z,10.77
2024-02-28T04:29:44.742Z,10.63
2024-02-28T04:30:46.397Z,11.70
2024-02-28T04:31:48.006Z,16.35
2024-02-28T04:32:49.701Z,15.75
2024-02-28T04:33:51.333Z,18.95
2024-02-28T04:34:53.205Z,14.00
2024-02-28T04:35:54.808Z,17.48
2024-02-28T04:36:56.394Z,15.48
2024-02-28T04:37:58.080Z,16.52
2024-02-28T04:38:59.744Z,14.90
2024-02-28T04:40:01.677Z,16.40
2024-02-28T04:41:04.414Z,13.50
2024-02-28T04:42:06.146Z,10.88
2024-02-28T04:43:07.758Z,16.35
2024-02-28T04:44:09.314Z,11.30
2024-02-28T04:45:11.079Z,13.80
2024-02-28T04:46:12.681Z,18.38
2024-02-28T04:47:14.894Z,14.98
2024-02-28T04:48:16.611Z,17.73
2024-02-28T04:49:18.456Z,15.50
2024-02-28T04:50:20.036Z,14.38
2024-02-28T04:51:21.642Z,17.70
2024-02-28T04:52:24.633Z,15.45
2024-02-28T04:53:26.266Z,14.45
2024-02-28T04:54:27.914Z,15.00
2024-02-28T04:55:29.661Z,16.67
2024-02-28T04:56:31.201Z,14.52
2024-02-28T04:57:32.866Z,17.83
2024-02-28T04:58:34.709Z,14.63
2024-02-28T04:59:36.316Z,13.55
2024-02-28T05:00:37.953Z,13.57
2024-02-28T05:01:40.464Z,16.42
2024-02-28T05:03:43.681Z,11.98
2024-02-28T05:04:45.297Z,16.95
2024-02-28T05:05:46.939Z,16.77
2024-02-28T05:06:48.610Z,18.45
2024-02-28T05:07:50.230Z,14.25
2024-02-28T05:08:51.893Z,19.42
2024-02-28T05:09:53.514Z,12.70
2024-02-28T05:10:55.205Z,15.57
2024-02-28T05:11:56.852Z,14.50
2024-02-28T05:12:58.596Z,18.15
2024-02-28T05:14:00.282Z,16.13
2024-02-28T05:15:01.880Z,13.18
2024-02-28T05:16:03.759Z,18.35
2024-02-28T05:17:05.420Z,12.35
2024-02-28T05:18:07.702Z,21.45
2024-02-28T05:19:10.643Z,13.75
2024-02-28T05:20:12.599Z,16.70
2024-02-28T05:21:14.631Z,16.85
2024-02-28T05:22:16.449Z,18.45
2024-02-28T05:23:18.064Z,19.23
2024-02-28T05:24:19.849Z,16.95
2024-02-28T05:25:21.510Z,15.25
2024-02-28T05:26:23.138Z,14.10
2024-02-28T05:27:24.885Z,16.90
2024-02-28T05:28:26.419Z,14.82
2024-02-28T05:29:27.956Z,13.98
2024-02-28T05:30:29.609Z,20.83
2024-02-28T05:31:35.063Z,24.20
2024-02-28T05:32:36.629Z,16.50
2024-02-28T05:33:38.283Z,20.33
2024-02-28T05:34:39.874Z,15.95
2024-02-28T05:35:41.984Z,18.73
2024-02-28T05:36:43.646Z,19.05
2024-02-28T05:37:47.693Z,18.55
2024-02-28T05:38:49.345Z,16.13
2024-02-28T05:39:50.939Z,16.20
2024-02-28T05:40:53.150Z,16.95
2024-02-28T05:41:55.125Z,18.50
2024-02-28T05:42:56.783Z,16.92
2024-02-28T05:43:58.469Z,19.90
2024-02-28T05:45:00.038Z,12.50
2024-02-28T05:46:01.751Z,14.07
2024-02-28T05:47:03.314Z,16.38
2024-02-28T05:48:05.065Z,14.20
2024-02-28T05:49:06.771Z,19.70
2024-02-28T05:50:08.773Z,17.13
2024-02-28T05:51:11.715Z,19.85
2024-02-28T05:52:14.456Z,23.02
2024-02-28T05:53:16.095Z,20.60
2024-02-28T05:54:17.738Z,15.27
2024-02-28T05:55:19.533Z,16.65
2024-02-28T05:56:22.398Z,16.13
2024-02-28T05:57:24.871Z,17.50
2024-02-28T05:59:27.978Z,18.73
2024-02-28T06:00:29.602Z,19.58
2024-02-28T06:01:31.377Z,17.13
2024-02-28T06:02:33.047Z,27.58
2024-02-28T06:03:35.206Z,15.93
2024-02-28T06:04:36.847Z,14.18
2024-02-28T06:05:40.841Z,17.02
2024-02-28T06:06:44.105Z,22.27
2024-02-28T06:07:45.699Z,19.38
2024-02-28T06:08:47.314Z,19.45
2024-02-28T06:09:48.948Z,24.40
2024-02-28T06:10:50.740Z,21.27
2024-02-28T06:11:52.339Z,14.85
2024-02-28T06:12:54.006Z,15.98
2024-02-28T06:13:55.735Z,14.93
2024-02-28T06:14:57.312Z,22.13
2024-02-28T06:15:59.295Z,19.73
2024-02-28T06:17:01.016Z,23.02
2024-02-28T06:18:02.684Z,17.58
2024-02-28T06:19:06.261Z,19.70
2024-02-28T06:20:08.571Z,19.98
2024-02-28T06:21:10.255Z,20.08
2024-02-28T06:22:11.918Z,18.90
2024-02-28T06:23:19.865Z,21.02
2024-02-28T06:24:25.382Z,21.52
2024-02-28T06:25:28.724Z,21.63
2024-02-28T06:26:32.189Z,22.02
2024-02-28T06:27:34.126Z,19.23
2024-02-28T06:28:35.761Z,19.60
2024-02-28T06:29:37.728Z,25.25
2024-02-28T06:30:39.501Z,18.77
2024-02-28T06:31:41.142Z,16.25
2024-02-28T06:32:42.805Z,19.38
2024-02-28T06:33:45.356Z,15.77
2024-02-28T06:34:47.037Z,19.13
2024-02-28T06:35:48.738Z,24.02
2024-02-28T06:36:50.435Z,21.67
2024-02-28T06:37:52.700Z,20.17
2024-02-28T06:38:54.303Z,25.17
2024-02-28T06:39:55.945Z,21.38
2024-02-28T06:40:57.563Z,22.58
2024-02-28T06:41:59.219Z,21.42
2024-02-28T06:43:01.447Z,19.90
2024-02-28T06:44:03.048Z,20.02
2024-02-28T06:45:05.178Z,15.95
2024-02-28T06:46:06.833Z,20.70
2024-02-28T06:47:10.118Z,19.42
2024-02-28T06:48:11.791Z,18.60
2024-02-28T06:49:13.425Z,15.48
2024-02-28T06:50:15.393Z,21.27
2024-02-28T06:51:19.848Z,16.48
2024-02-28T06:52:21.506Z,18.90
2024-02-28T06:53:23.094Z,20.02
2024-02-28T06:54:24.716Z,24.75
2024-02-28T06:55:26.289Z,20.58
2024-02-28T06:56:27.877Z,18.33
2024-02-28T06:57:29.439Z,18.02
2024-02-28T06:58:31.028Z,24.33
2024-02-28T06:59:32.705Z,20.92
2024-02-28T07:00:34.411Z,19.25
2024-02-28T07:01:36.157Z,20.02
2024-02-28T07:02:37.771Z,19.42
2024-02-28T07:03:39.447Z,20.45
2024-02-28T07:04:43.121Z,25.90
2024-02-28T07:05:44.771Z,17.60
2024-02-28T07:06:46.480Z,24.45
2024-02-28T07:07:48.112Z,20.65
2024-02-28T07:08:49.693Z,20.92
2024-02-28T07:09:51.384Z,22.63
2024-02-28T07:10:54.964Z,23.48
2024-02-28T07:11:56.731Z,23.48
2024-02-28T07:12:58.796Z,16.38
2024-02-28T07:14:03.287Z,24.00
2024-02-28T07:15:05.708Z,21.83
2024-02-28T07:16:07.747Z,19.48
2024-02-28T07:17:09.747Z,27.88
2024-02-28T07:18:11.340Z,23.20
2024-02-28T07:19:13.060Z,24.20
2024-02-28T07:20:14.969Z,18.33
2024-02-28T07:21:16.646Z,22.33
2024-02-28T07:22:18.765Z,14.90
2024-02-28T07:23:20.362Z,18.75
2024-02-28T07:24:21.953Z,18.00
2024-02-28T07:25:23.830Z,18.00
2024-02-28T07:26:27.722Z,23.30
2024-02-28T07:27:29.795Z,19.02
2024-02-28T07:28:32.312Z,19.33
2024-02-28T07:30:37.327Z,15.15
2024-02-28T07:31:41.614Z,16.88
2024-02-28T07:32:43.240Z,19.77
2024-02-28T07:33:45.023Z,17.17
2024-02-28T07:34:46.725Z,17.77
2024-02-28T07:35:48.638Z,24.08
2024-02-28T07:36:51.263Z,24.35
2024-02-28T07:37:52.887Z,19.13
2024-02-28T07:38:54.560Z,16.83
2024-02-28T07:39:56.229Z,19.63
2024-02-28T07:40:57.951Z,17.13
2024-02-28T07:41:59.674Z,12.57
2024-02-28T07:43:01.294Z,19.45
2024-02-28T07:44:02.963Z,21.42
2024-02-28T07:45:05.168Z,18.80
2024-02-28T07:46:10.673Z,20.92
2024-02-28T07:47:12.364Z,19.38
2024-02-28T07:48:13.948Z,20.10
2024-02-28T07:49:15.605Z,15.93
2024-02-28T07:50:18.464Z,18.58
2024-02-28T07:51:20.089Z,16.88
2024-02-28T07:52:21.799Z,19.45
2024-02-28T07:53:23.698Z,14.18
2024-02-28T07:54:25.941Z,18.35
2024-02-28T07:55:27.509Z,18.95
2024-02-28T07:56:30.233Z,21.40
2024-02-28T07:57:32.493Z,25.48
2024-02-28T07:58:34.328Z,16.20
2024-02-28T07:59:42.543Z,14.52
2024-02-28T08:00:47.264Z,22.10
2024-02-28T08:01:49.242Z,23.23
2024-02-28T08:02:51.012Z,18.83
2024-02-28T08:03:52.752Z,16.35
2024-02-28T08:04:54.390Z,19.00
2024-02-28T08:05:55.990Z,21.67
2024-02-28T08:06:57.634Z,16.95
2024-02-28T08:07:59.254Z,20.67
2024-02-28T08:09:00.825Z,22.70
2024-02-28T08:10:02.610Z,21.45
2024-02-28T08:11:04.514Z,16.52
2024-02-28T08:12:06.182Z,16.00
2024-02-28T08:13:08.918Z,22.35
2024-02-28T08:14:11.454Z,14.60
2024-02-28T08:15:13.060Z,25.38
2024-02-28T08:16:14.856Z,17.63
2024-02-28T08:17:16.758Z,16.48
2024-02-28T08:18:18.434Z,17.63
2024-02-28T08:19:20.082Z,24.65
2024-02-28T08:20:21.729Z,19.65
2024-02-28T08:21:23.340Z,13.93
2024-02-28T08:22:26.087Z,16.23
2024-02-28T08:23:28.333Z,21.55
2024-02-28T08:24:30.101Z,20.92
2024-02-28T08:25:31.835Z,22.23
2024-02-28T08:26:33.470Z,23.13
2024-02-28T08:27:37.925Z,16.08
2024-02-28T08:28:39.492Z,14.25
2024-02-28T08:29:48.060Z,16.38
2024-02-28T08:31:52.063Z,8.20
2024-02-28T08:32:53.780Z,11.32
2024-02-28T08:33:56.754Z,13.73
2024-02-28T08:34:59.157Z,18.50
2024-02-28T08:36:00.840Z,17.60
2024-02-28T08:37:02.776Z,14.73
2024-02-28T08:38:04.617Z,14.50
2024-02-28T08:39:06.234Z,16.20
2024-02-28T08:40:08.704Z,17.25
2024-02-28T08:41:10.296Z,16.83
2024-02-28T08:42:13.130Z,23.95
2024-02-28T08:43:14.756Z,16.13
2024-02-28T08:44:16.357Z,18.13
2024-02-28T08:45:17.949Z,10.45
2024-02-28T08:46:19.673Z,20.65
2024-02-28T08:47:24.959Z,13.25
2024-02-28T08:48:26.560Z,13.68
2024-02-28T08:49:28.233Z,17.48
2024-02-28T08:50:30.428Z,19.70
2024-02-28T08:51:32.104Z,24.95
2024-02-28T08:52:34.144Z,18.73
2024-02-28T08:53:35.688Z,16.95
2024-02-28T08:54:37.369Z,17.02
2024-02-28T08:55:39.084Z,11.93
2024-02-28T08:56:49.713Z,14.57
2024-02-28T08:57:55.247Z,12.77
2024-02-28T08:58:56.814Z,14.95
2024-02-28T08:59:58.570Z,13.05
2024-02-28T09:01:00.319Z,13.20
2024-02-28T09:02:02.044Z,19.88
2024-02-28T09:03:05.449Z,23.40
2024-02-28T09:04:07.224Z,15.20
2024-02-28T09:05:10.120Z,13.23
2024-02-28T09:06:11.779Z,11.20
2024-02-28T09:07:13.412Z,16.30
2024-02-28T09:08:15.238Z,16.83
2024-02-28T09:09:18.053Z,20.67
2024-02-28T09:10:25.477Z,17.90
2024-02-28T09:11:27.442Z,13.82
2024-02-28T09:12:29.081Z,17.05
2024-02-28T09:13:31.338Z,17.52
2024-02-28T09:14:32.910Z,17.27
2024-02-28T09:15:36.130Z,12.32
2024-02-28T09:16:37.772Z,13.02
2024-02-28T09:17:39.404Z,17.02
2024-02-28T09:18:41.032Z,18.52
2024-02-28T09:19:42.615Z,15.50
2024-02-28T09:20:44.225Z,13.82
2024-02-28T09:21:45.846Z,19.15
2024-02-28T09:22:47.490Z,15.77
2024-02-28T09:23:49.104Z,14.23
2024-02-28T09:24:50.674Z,17.05
2024-02-28T09:25:52.375Z,18.70
2024-02-28T09:26:54.067Z,17.77
2024-02-28T09:27:55.788Z,12.85
2024-02-28T09:28:57.499Z,14.68
2024-02-28T09:29:59.069Z,15.45
2024-02-28T09:31:02.151Z,19.27
2024-02-28T09:32:05.127Z,17.42
2024-02-28T09:33:07.333Z,13.50
2024-02-28T09:34:10.976Z,14.65
2024-02-28T09:35:13.014Z,20.17
2024-02-28T09:36:14.700Z,17.80
2024-02-28T09:37:17.989Z,15.48
2024-02-28T09:38:20.165Z,13.90
2024-02-28T09:39:23.085Z,27.00
2024-02-28T09:40:24.899Z,14.35
2024-02-28T09:41:28.619Z,14.20
2024-02-28T09:42:30.374Z,16.75
2024-02-28T09:43:33.234Z,24.85
2024-02-28T09:44:36.001Z,18.25
2024-02-28T09:45:37.662Z,20.17
2024-02-28T09:46:39.264Z,13.63
2024-02-28T09:47:41.052Z,15.15
2024-02-28T09:48:42.856Z,25.70
2024-02-28T09:49:46.401Z,13.68
2024-02-28T09:50:48.494Z,12.40
2024-02-28T09:51:53.621Z,12.68
2024-02-28T09:53:02.472Z,22.38
2024-02-28T09:54:11.622Z,13.30
2024-02-28T09:55:13.280Z,23.48
2024-02-28T09:56:16.669Z,18.60
2024-02-28T09:57:18.791Z,12.75
2024-02-28T09:58:23.324Z,17.40
2024-02-28T09:59:32.140Z,15.80
2024-02-28T10:00:38.817Z,18.10
2024-02-28T10:01:46.977Z,27.80
2024-02-28T10:02:52.024Z,23.15
2024-02-28T10:03:54.924Z,20.95
2024-02-28T10:04:58.566Z,18.33
2024-02-28T10:06:02.140Z,23.17
2024-02-28T10:07:14.622Z,25.80
2024-02-28T10:08:16.652Z,19.52
2024-02-28T10:09:18.577Z,12.82
2024-02-28T10:10:21.000Z,20.48
2024-02-28T10:11:23.349Z,17.00
2024-02-28T10:12:26.516Z,17.13
2024-02-28T10:13:28.339Z,17.55
2024-02-28T10:14:29.975Z,18.88
2024-02-28T10:15:32.214Z,21.38
2024-02-28T10:16:33.980Z,19.17
2024-02-28T10:17:35.630Z,26.38
2024-02-28T10:18:37.255Z,12.60
2024-02-28T10:19:40.044Z,12.20
2024-02-28T10:20:41.633Z,17.38
2024-02-28T10:21:43.276Z,23.63
2024-02-28T10:22:44.922Z,18.85
2024-02-28T10:23:46.596Z,12.98
2024-02-28T10:24:48.297Z,20.30
2024-02-28T10:25:56.568Z,18.63
2024-02-28T10:27:02.402Z,24.38
2024-02-28T10:28:04.249Z,16.10
2024-02-28T10:29:08.717Z,18.33
2024-02-28T10:30:12.083Z,11.95
2024-02-28T10:31:13.791Z,12.05
2024-02-28T10:32:15.546Z,19.23
2024-02-28T10:33:17.606Z,21.92
2024-02-28T10:34:22.476Z,21.70
2024-02-28T10:35:27.920Z,17.80
2024-02-28T10:36:31.770Z,12.50
2024-02-28T10:37:34.144Z,14.48
2024-02-28T10:39:39.414Z,8.90
2024-02-28T10:40:44.176Z,14.85
2024-02-28T10:41:47.994Z,13.43
2024-02-28T10:42:50.016Z,17.00
2024-02-28T10:43:52.758Z,16.17
2024-02-28T10:45:09.629Z,20.58
2024-02-28T10:46:35.683Z,21.10
2024-02-28T10:47:42.299Z,17.08
2024-02-28T10:48:44.009Z,19.95
2024-02-28T10:49:45.805Z,22.80
2024-02-28T10:50:48.037Z,15.60
2024-02-28T10:51:50.781Z,14.95
2024-02-28T10:52:55.637Z,24.23
2024-02-28T10:54:14.329Z,22.70
2024-02-28T10:55:21.704Z,15.85
2024-02-28T10:56:23.291Z,19.17
2024-02-28T10:57:26.489Z,16.98
2024-02-28T10:58:31.417Z,16.38
2024-02-28T10:59:34.086Z,20.55
2024-02-28T11:00:36.547Z,22.60
2024-02-28T11:01:45.531Z,16.10
2024-02-28T11:02:48.155Z,17.48
2024-02-28T11:03:51.090Z,19.77
2024-02-28T11:04:55.809Z,21.40
2024-02-28T11:05:57.648Z,19.35
2024-02-28T11:06:59.476Z,17.05
2024-02-28T11:08:01.644Z,13.77
2024-02-28T11:09:04.459Z,18.83
2024-02-28T11:10:11.540Z,16.02
2024-02-28T11:11:15.202Z,24.00
2024-02-28T11:12:28.502Z,19.25
2024-02-28T11:13:32.223Z,17.52
2024-02-28T11:14:36.854Z,13.48
2024-02-28T11:15:39.617Z,19.10
2024-02-28T11:16:43.307Z,12.40
2024-02-28T11:17:44.943Z,19.60
2024-02-28T11:18:52.816Z,16.52
2024-02-28T11:19:54.559Z,16.55
2024-02-28T11:20:56.638Z,12.13
2024-02-28T11:21:59.349Z,16.73
2024-02-28T11:23:01.409Z,17.58
2024-02-28T11:24:04.505Z,16.13
2024-02-28T11:25:06.816Z,20.92
2024-02-28T11:26:08.586Z,17.60
2024-02-28T11:27:14.837Z,18.17
2024-02-28T11:28:17.070Z,26.92
2024-02-28T11:29:29.972Z,14.23
2024-02-28T11:30:32.687Z,14.13
2024-02-28T11:31:34.294Z,15.30
2024-02-28T11:32:36.091Z,19.00
2024-02-28T11:33:38.153Z,20.55
2024-02-28T11:34:41.752Z,21.52
2024-02-28T11:35:43.864Z,18.50
2024-02-28T11:36:49.276Z,13.13
2024-02-28T11:37:52.091Z,17.13
2024-02-28T11:38:55.323Z,15.90
2024-02-28T11:39:58.264Z,14.38
2024-02-28T11:40:59.961Z,17.58
2024-02-28T11:42:16.544Z,18.98
2024-02-28T11:43:21.939Z,22.85
2024-02-28T11:44:23.875Z,19.77
2024-02-28T11:45:26.618Z,14.68
2024-02-28T11:46:28.869Z,20.67
2024-02-28T11:47:30.774Z,22.23
2024-02-28T11:48:33.994Z,19.80
2024-02-28T11:49:35.671Z,26.25
2024-02-28T11:50:38.835Z,20.48
2024-02-28T11:51:44.190Z,20.23
2024-02-28T11:52:46.694Z,12.77
2024-02-28T11:54:49.905Z,17.20
2024-02-28T11:55:51.672Z,12.40
2024-02-28T11:56:54.155Z,17.75
2024-02-28T11:57:56.737Z,16.90
2024-02-28T11:58:59.820Z,18.80
2024-02-28T12:00:19.707Z,24.50
2024-02-28T12:01:37.391Z,15.85
2024-02-28T12:02:39.137Z,21.08
2024-02-28T12:03:46.314Z,14.05
2024-02-28T12:04:51.100Z,19.55
2024-02-28T12:05:53.418Z,23.20
2024-02-28T12:06:55.386Z,19.17
2024-02-28T12:07:57.493Z,15.63
2024-02-28T12:08:59.153Z,20.98
2024-02-28T12:10:01.506Z,23.25
2024-02-28T12:11:11.332Z,19.60
2024-02-28T12:12:13.465Z,15.15
2024-02-28T12:13:24.383Z,12.70
2024-02-28T12:14:25.991Z,16.33
2024-02-28T12:15:30.331Z,21.15
2024-02-28T12:16:31.929Z,21.05
2024-02-28T12:17:33.712Z,20.58
2024-02-28T12:18:36.079Z,22.38
2024-02-28T12:19:39.892Z,22.02
2024-02-28T12:20:41.644Z,17.92
2024-02-28T12:21:43.768Z,23.30
2024-02-28T12:22:45.913Z,19.75
2024-02-28T12:23:49.377Z,13.43
2024-02-28T12:24:51.075Z,17.40
2024-02-28T12:25:52.706Z,21.42
2024-02-28T12:26:54.260Z,17.27
2024-02-28T12:27:55.980Z,12.07
2024-02-28T12:28:57.636Z,20.02
2024-02-28T12:29:59.305Z,16.10
2024-02-28T12:31:01.147Z,23.17
2024-02-28T12:32:03.674Z,20.90
2024-02-28T12:34:07.343Z,18.75
2024-02-28T12:35:09.190Z,23.10
2024-02-28T12:36:11.264Z,23.40
2024-02-28T12:37:13.043Z,36.03
2024-02-28T12:38:15.867Z,24.05
2024-02-28T12:39:17.522Z,22.95
2024-02-28T12:40:19.129Z,25.13
2024-02-28T12:41:20.792Z,29.83
2024-02-28T12:42:22.457Z,28.80
2024-02-28T12:43:24.387Z,23.90
2024-02-28T12:44:26.017Z,22.48
2024-02-28T12:45:27.802Z,23.98
2024-02-28T12:46:29.580Z,26.35
2024-02-28T12:47:32.925Z,30.08
2024-02-28T12:48:43.786Z,33.13
2024-02-28T12:49:45.477Z,16.48
2024-02-28T12:50:47.053Z,22.08
2024-02-28T12:51:50.190Z,21.58
2024-02-28T12:52:54.578Z,23.38
2024-02-28T12:53:57.369Z,20.92
2024-02-28T12:54:59.005Z,22.92
2024-02-28T12:56:00.680Z,24.02
2024-02-28T12:57:04.753Z,23.13
2024-02-28T12:58:06.758Z,24.42
2024-02-28T12:59:08.476Z,30.63
2024-02-28T13:00:10.406Z,32.38
2024-02-28T13:01:12.780Z,24.35
2024-02-28T13:02:14.505Z,33.00
2024-02-28T13:03:17.230Z,21.40
2024-02-28T13:04:18.903Z,23.27
2024-02-28T13:05:20.560Z,22.42
2024-02-28T13:06:22.422Z,16.15
2024-02-28T13:07:24.055Z,28.95
2024-02-28T13:08:25.607Z,32.38
2024-02-28T13:09:27.552Z,24.50
2024-02-28T13:10:29.298Z,32.25
2024-02-28T13:11:30.979Z,28.67
2024-02-28T13:12:33.444Z,20.38
2024-02-28T13:14:36.687Z,23.20
2024-02-28T13:15:38.336Z,25.98
2024-02-28T13:16:40.030Z,22.02
2024-02-28T13:17:44.280Z,19.70
2024-02-28T13:18:46.307Z,26.33
2024-02-28T13:19:47.954Z,25.55
2024-02-28T13:20:49.505Z,24.17
2024-02-28T13:21:51.116Z,19.65
2024-02-28T13:22:52.809Z,22.45
2024-02-28T13:23:54.425Z,20.52
2024-02-28T13:24:56.507Z,24.88
2024-02-28T13:25:58.449Z,21.55
2024-02-28T13:27:00.008Z,25.20
2024-02-28T13:28:01.721Z,25.88
2024-02-28T13:29:03.512Z,18.63
2024-02-28T13:30:06.354Z,19.77
2024-02-28T13:31:08.062Z,24.60
2024-02-28T13:32:09.736Z,25.88
2024-02-28T13:33:11.364Z,23.15
2024-02-28T13:34:13.525Z,22.00
2024-02-28T13:35:15.128Z,22.30
2024-02-28T13:36:16.827Z,24.25
2024-02-28T13:37:18.512Z,28.27
2024-02-28T13:38:20.500Z,24.17
2024-02-28T13:39:24.371Z,26.08
2024-02-28T13:40:26.072Z,22.08